Time;durP1;ratioP1;P1;durP2;ratioP2;P2;SDS_P1;SDS_P2;PMS_P1;PMS_P2;Temp;Humidity;BMP_temperature;BMP_pressure;BME280_temperature;BME280_humidity;BME280_pressure;Samples;Min_cycle;Max_cycle;Signal;HPM_P1;HPM_P2
2020/03/17 00:00:23;;;;;;;10.9;7;;;;;;;6.36;67.69727;946.5726;;;;
2020/03/17 00:02:48;;;;;;;9.7;5.8;;;;;;;6.15;68.34277;946.511;;;;
2020/03/17 00:05:14;;;;;;;9.3;5.2;;;;;;;6.03;68.83203;946.5832;;;;
2020/03/17 00:07:39;;;;;;;7.2;3.8;;;;;;;5.96;68.87695;946.6085;;;;
2020/03/17 00:10:04;;;;;;;7.4;3.6;;;;;;;6;68.63477;946.595;;;;
2020/03/17 00:12:29;;;;;;;6.9;3.3;;;;;;;6.02;68.33203;946.6127;;;;
2020/03/17 00:14:54;;;;;;;11.8;5.4;;;;;;;5.94;69.22461;946.6345;;;;
2020/03/17 00:17:20;;;;;;;13.6;6.1;;;;;;;5.92;69.29883;946.6471;;;;
2020/03/17 00:19:45;;;;;;;9.1;4.9;;;;;;;6.04;68.40332;946.6799;;;;
2020/03/17 00:22:10;;;;;;;12.3;5.9;;;;;;;6.13;67.94238;946.7347;;;;
2020/03/17 00:24:35;;;;;;;12.9;5.5;;;;;;;6.18;67.77051;946.7567;;;;
2020/03/17 00:27:00;;;;;;;10.3;4.9;;;;;;;6.18;67.55566;946.7819;;;;
2020/03/17 00:29:26;;;;;;;9.8;5.8;;;;;;;5.99;68.21387;946.8078;;;;
2020/03/17 00:31:51;;;;;;;12.4;6.1;;;;;;;5.77;69.00488;946.8864;;;;
2020/03/17 00:34:16;;;;;;;8;4.5;;;;;;;5.6;69.63184;946.8451;;;;
2020/03/17 00:36:42;;;;;;;8;3.7;;;;;;;5.62;69.49902;946.9063;;;;
2020/03/17 00:39:07;;;;;;;7.5;3.6;;;;;;;5.76;68.83398;946.8945;;;;
2020/03/17 00:41:32;;;;;;;6.4;3.5;;;;;;;5.84;68.31641;946.8619;;;;
2020/03/17 00:43:57;;;;;;;5.4;3.5;;;;;;;5.98;67.75;946.9429;;;;
2020/03/17 00:46:22;;;;;;;5.2;3.3;;;;;;;5.95;67.58691;946.9645;;;;
2020/03/17 00:48:47;;;;;;;5.1;3;;;;;;;5.94;67.55273;946.9539;;;;
2020/03/17 00:51:13;;;;;;;8.1;3.6;;;;;;;5.91;67.7627;946.9489;;;;
2020/03/17 00:53:38;;;;;;;5.6;3.6;;;;;;;5.93;67.57227;947.007;;;;
2020/03/17 00:56:03;;;;;;;7.2;4.4;;;;;;;5.88;67.94922;947.0175;;;;
2020/03/17 00:58:29;;;;;;;7.7;4.8;;;;;;;5.84;68.15625;947.0647;;;;
2020/03/17 01:00:54;;;;;;;9;5.6;;;;;;;5.61;69.11523;947.0259;;;;
2020/03/17 01:03:19;;;;;;;7.6;5.1;;;;;;;5.5;69.75;947.0759;;;;
2020/03/17 01:05:44;;;;;;;8.4;4.9;;;;;;;5.36;70.20117;947.0644;;;;
2020/03/17 01:08:10;;;;;;;6.2;4.3;;;;;;;5.25;70.62305;947.0684;;;;
2020/03/17 01:10:35;;;;;;;9.1;4.6;;;;;;;5.2;70.81836;946.9933;;;;
2020/03/17 01:13:00;;;;;;;8.2;4.8;;;;;;;5.15;71.0791;947.0808;;;;
2020/03/17 01:15:26;;;;;;;6.1;4;;;;;;;5.02;71.50879;947.1233;;;;
2020/03/17 01:17:51;;;;;;;6.6;4.4;;;;;;;4.88;72.11719;947.1121;;;;
2020/03/17 01:20:16;;;;;;;8.5;4.9;;;;;;;4.84;72.53809;947.1592;;;;
2020/03/17 01:22:41;;;;;;;11.1;5.4;;;;;;;4.94;72.12793;947.1479;;;;
2020/03/17 01:25:07;;;;;;;9.7;4.6;;;;;;;5.08;71.33887;947.1356;;;;
2020/03/17 01:27:32;;;;;;;7.9;5;;;;;;;5.13;71.12109;947.1905;;;;
2020/03/17 01:29:57;;;;;;;6.6;4.5;;;;;;;5.27;70.39941;947.2213;;;;
2020/03/17 01:32:22;;;;;;;7.4;4.6;;;;;;;5.32;70.36328;947.1534;;;;
2020/03/17 01:34:47;;;;;;;7.3;4.6;;;;;;;5.29;70.16699;947.2034;;;;
2020/03/17 01:37:12;;;;;;;6.3;4;;;;;;;5.21;70.34473;947.1756;;;;
2020/03/17 01:39:38;;;;;;;7.8;4;;;;;;;5.04;70.90332;947.2141;;;;
2020/03/17 01:42:03;;;;;;;9.9;4.4;;;;;;;4.96;71.24023;947.2025;;;;
2020/03/17 01:44:28;;;;;;;6.7;4.1;;;;;;;4.85;71.60547;947.1157;;;;
2020/03/17 01:46:54;;;;;;;6.1;3.9;;;;;;;4.77;71.79492;947.1566;;;;
2020/03/17 01:49:19;;;;;;;6.5;3.5;;;;;;;4.7;72.03027;947.2282;;;;
2020/03/17 01:51:44;;;;;;;5.3;3.5;;;;;;;4.58;72.61816;947.2307;;;;
2020/03/17 01:54:09;;;;;;;7.1;4;;;;;;;4.71;72.30176;947.1577;;;;
2020/03/17 01:56:34;;;;;;;7.2;3.7;;;;;;;4.68;72.33008;947.1484;;;;
2020/03/17 01:58:59;;;;;;;5.2;3.4;;;;;;;4.72;72.15723;947.2079;;;;
2020/03/17 02:01:24;;;;;;;5.2;3.4;;;;;;;4.79;71.59375;947.2299;;;;
2020/03/17 02:03:50;;;;;;;8.7;3.8;;;;;;;4.91;71.41211;947.157;;;;
2020/03/17 02:06:15;;;;;;;7.3;3.6;;;;;;;4.86;71.59375;947.1545;;;;
2020/03/17 02:08:40;;;;;;;5.6;3.4;;;;;;;4.77;71.82813;947.1605;;;;
2020/03/17 02:11:05;;;;;;;5.2;3.1;;;;;;;4.73;71.87695;947.1841;;;;
2020/03/17 02:13:30;;;;;;;4.5;3.3;;;;;;;4.7;71.96289;947.1429;;;;
2020/03/17 02:15:55;;;;;;;6.4;3.4;;;;;;;4.71;71.86328;947.1766;;;;
2020/03/17 02:18:21;;;;;;;4.6;2.9;;;;;;;4.67;71.77832;947.1617;;;;
2020/03/17 02:20:46;;;;;;;4.9;2.7;;;;;;;4.46;72.48438;947.176;;;;
2020/03/17 02:23:11;;;;;;;14.3;4.1;;;;;;;4.41;72.81641;947.192;;;;
2020/03/17 02:25:37;;;;;;;6.1;3;;;;;;;4.52;72.49512;947.1671;;;;
2020/03/17 02:28:02;;;;;;;6;3.2;;;;;;;4.48;72.66895;947.1998;;;;
2020/03/17 02:30:27;;;;;;;8.5;3.8;;;;;;;4.48;72.79102;947.2115;;;;
2020/03/17 02:32:52;;;;;;;6.5;3.7;;;;;;;4.42;73.05273;947.2104;;;;
2020/03/17 02:35:18;;;;;;;7.1;3.7;;;;;;;4.51;72.65137;947.1861;;;;
2020/03/17 02:37:43;;;;;;;7.6;3.9;;;;;;;4.49;72.61426;947.209;;;;
2020/03/17 02:40:08;;;;;;;5.8;3.3;;;;;;;4.54;72.27441;947.2294;;;;
2020/03/17 02:42:33;;;;;;;6.1;3.2;;;;;;;4.41;72.88184;947.2589;;;;
2020/03/17 02:44:58;;;;;;;6.5;3.4;;;;;;;4.32;73.15918;947.3061;;;;
2020/03/17 02:47:24;;;;;;;5.5;2.9;;;;;;;4.34;73.13965;947.3758;;;;
2020/03/17 02:49:49;;;;;;;5.9;3.1;;;;;;;4.39;72.96875;947.2869;;;;
2020/03/17 02:52:14;;;;;;;5.6;3;;;;;;;4.46;72.50684;947.373;;;;
2020/03/17 02:54:40;;;;;;;7.1;3.9;;;;;;;4.25;73.10156;947.4197;;;;
2020/03/17 02:57:05;;;;;;;6.2;3.4;;;;;;;4.3;72.94043;947.4659;;;;
2020/03/17 02:59:30;;;;;;;5.7;3;;;;;;;4.32;72.78809;947.4568;;;;
2020/03/17 03:01:55;;;;;;;16.3;8.5;;;;;;;4.28;72.87207;947.493;;;;
2020/03/17 03:04:21;;;;;;;10;4.1;;;;;;;4.38;72.56055;947.4793;;;;
2020/03/17 03:06:46;;;;;;;19.1;11.4;;;;;;;4.46;72.02246;947.4992;;;;
2020/03/17 03:09:11;;;;;;;13.7;6.6;;;;;;;4.46;71.97949;947.4995;;;;
2020/03/17 03:11:36;;;;;;;12.5;6.9;;;;;;;4.31;72.75098;947.6494;;;;
2020/03/17 03:14:01;;;;;;;6;3.6;;;;;;;4.32;72.55176;947.6384;;;;
2020/03/17 03:16:26;;;;;;;6.8;3.2;;;;;;;4.24;72.80762;947.6669;;;;
2020/03/17 03:18:51;;;;;;;5.2;2.8;;;;;;;4.1;73.26855;947.7134;;;;
2020/03/17 03:21:16;;;;;;;3.8;2.4;;;;;;;4;73.8584;947.8098;;;;
2020/03/17 03:23:41;;;;;;;3.9;2.5;;;;;;;4.18;73.15723;947.8558;;;;
2020/03/17 03:26:07;;;;;;;5.1;2.5;;;;;;;4.28;72.58984;947.8287;;;;
2020/03/17 03:28:32;;;;;;;5.4;2.3;;;;;;;4.35;72.35352;947.8139;;;;
2020/03/17 03:30:57;;;;;;;3.4;2.4;;;;;;;4.33;72.51758;947.8506;;;;
2020/03/17 03:33:22;;;;;;;4.1;2.3;;;;;;;4.34;72.19434;947.8109;;;;
2020/03/17 03:35:47;;;;;;;3.6;2.3;;;;;;;4.38;71.9082;947.9044;;;;
2020/03/17 03:38:12;;;;;;;5;2.7;;;;;;;4.25;72.5957;947.8431;;;;
2020/03/17 03:40:37;;;;;;;4;2.3;;;;;;;4.31;72.41504;947.9404;;;;
2020/03/17 03:43:02;;;;;;;5.8;2.9;;;;;;;4.27;72.44141;947.9716;;;;
2020/03/17 03:45:27;;;;;;;8.3;2.8;;;;;;;4.33;72.15918;947.9303;;;;
2020/03/17 03:47:52;;;;;;;5.8;2.5;;;;;;;4.25;72.33691;948.0045;;;;
2020/03/17 03:50:18;;;;;;;6.2;2.7;;;;;;;4.24;72.48145;947.8786;;;;
2020/03/17 03:52:43;;;;;;;5.9;2.9;;;;;;;4.16;72.78223;948.0361;;;;
2020/03/17 03:55:08;;;;;;;4;2.5;;;;;;;4.14;72.84668;948.0272;;;;
2020/03/17 03:57:34;;;;;;;6.4;2.7;;;;;;;4.14;72.94824;948.0461;;;;
2020/03/17 03:59:59;;;;;;;3.6;2.3;;;;;;;4.13;72.91309;948.0283;;;;
2020/03/17 04:02:30;;;;;;;5;2.4;;;;;;;4.02;73.08594;948.0964;;;;
2020/03/17 04:04:55;;;;;;;6.6;2.8;;;;;;;4.14;72.74609;948.1107;;;;
2020/03/17 04:07:20;;;;;;;7.2;3.1;;;;;;;4.22;72.43359;948.15;;;;
2020/03/17 04:09:46;;;;;;;5;2.7;;;;;;;4.24;72.25586;948.1703;;;;
2020/03/17 04:12:26;;;;;;;10.4;6.1;;;;;;;4.16;72.625;948.1984;;;;
2020/03/17 04:14:36;;;;;;;11.1;6.8;;;;;;;4.04;73.23438;948.2075;;;;
2020/03/17 04:17:01;;;;;;;9.9;6.7;;;;;;;3.94;73.77832;948.2361;;;;
2020/03/17 04:19:26;;;;;;;8.7;5.4;;;;;;;4.06;73.32813;948.288;;;;
2020/03/17 04:21:51;;;;;;;8.4;4.8;;;;;;;4.12;73.15723;948.3099;;;;
2020/03/17 04:24:16;;;;;;;8.4;5;;;;;;;4.2;72.65527;948.2905;;;;
2020/03/17 04:26:41;;;;;;;17.6;5;;;;;;;4.23;72.77246;948.3135;;;;
2020/03/17 04:29:06;;;;;;;10.2;3.4;;;;;;;4.26;72.57617;948.3033;;;;
2020/03/17 04:31:31;;;;;;;8.2;3.6;;;;;;;4.1;73.09766;948.3272;;;;
2020/03/17 04:33:57;;;;;;;6.5;3;;;;;;;3.92;73.95508;948.3564;;;;
2020/03/17 04:36:22;;;;;;;6.6;3.5;;;;;;;3.94;73.9375;948.4025;;;;
2020/03/17 04:38:47;;;;;;;7.9;4.3;;;;;;;3.84;74.17871;948.3658;;;;
2020/03/17 04:41:12;;;;;;;9.7;5.7;;;;;;;3.84;74.13379;948.3312;;;;
2020/03/17 04:43:38;;;;;;;6.1;3.5;;;;;;;3.79;74.29297;948.4064;;;;
2020/03/17 04:46:03;;;;;;;4.8;2.5;;;;;;;3.63;75.01758;948.4462;;;;
2020/03/17 04:48:28;;;;;;;5.5;3.4;;;;;;;3.73;74.6875;948.4105;;;;
2020/03/17 04:50:53;;;;;;;4;2.1;;;;;;;3.71;73.85156;948.4338;;;;
2020/03/17 04:53:18;;;;;;;6.5;2.7;;;;;;;3.9;73.52441;948.3412;;;;
2020/03/17 04:55:43;;;;;;;5.6;2.4;;;;;;;4.05;72.94238;948.4372;;;;
2020/03/17 04:58:08;;;;;;;20.1;4;;;;;;;4.15;72.73633;948.5134;;;;
2020/03/17 05:00:33;;;;;;;8.1;3.2;;;;;;;4.23;72.21973;948.4489;;;;
2020/03/17 05:02:58;;;;;;;8.5;3.5;;;;;;;4.25;72.16797;948.4751;;;;
2020/03/17 05:05:23;;;;;;;4.2;2.6;;;;;;;4.1;72.51465;948.5236;;;;
2020/03/17 05:07:48;;;;;;;9.3;4.2;;;;;;;4.16;72.92871;948.5705;;;;
2020/03/17 05:10:13;;;;;;;10.3;3.8;;;;;;;4.28;72.69141;948.6077;;;;
2020/03/17 05:12:38;;;;;;;9.6;4.1;;;;;;;4.34;72.47559;948.6177;;;;
2020/03/17 05:15:04;;;;;;;12.7;4.3;;;;;;;4.47;72.13672;948.6406;;;;
2020/03/17 05:17:29;;;;;;;14.7;4.4;;;;;;;4.46;72.0918;948.6082;;;;
2020/03/17 05:19:54;;;;;;;11.7;4.5;;;;;;;4.42;72.19727;948.7305;;;;
2020/03/17 05:22:20;;;;;;;9.3;4.6;;;;;;;4.46;72.04688;948.743;;;;
2020/03/17 05:24:45;;;;;;;14.6;5.2;;;;;;;4.46;71.77539;948.7427;;;;
2020/03/17 05:27:10;;;;;;;10.7;5.4;;;;;;;4.47;71.43945;948.7463;;;;
2020/03/17 05:29:35;;;;;;;12.8;5.3;;;;;;;4.45;71.60449;948.8585;;;;
2020/03/17 05:32:01;;;;;;;14.4;8.1;;;;;;;4.34;71.86816;948.8975;;;;
2020/03/17 05:34:26;;;;;;;11.3;6.4;;;;;;;4.11;72.02148;948.9017;;;;
2020/03/17 05:36:51;;;;;;;14.5;5.9;;;;;;;4.09;72.44434;948.9619;;;;
2020/03/17 05:39:16;;;;;;;18.4;6.4;;;;;;;4.04;72.72852;948.9744;;;;
2020/03/17 05:41:42;;;;;;;12.1;6.6;;;;;;;4.23;72.02832;948.936;;;;
2020/03/17 05:44:07;;;;;;;18.6;8.3;;;;;;;4.34;71.75586;948.9107;;;;
2020/03/17 05:46:33;;;;;;;16.8;7.9;;;;;;;4.39;71.63965;948.9542;;;;
2020/03/17 05:48:58;;;;;;;12.6;6.4;;;;;;;4.54;71.2373;948.9763;;;;
2020/03/17 05:51:23;;;;;;;10;5.3;;;;;;;4.75;70.36133;949.0359;;;;
2020/03/17 05:53:48;;;;;;;9.9;4.8;;;;;;;4.86;69.94922;948.9647;;;;
2020/03/17 05:56:13;;;;;;;9.6;4.7;;;;;;;4.85;70.05078;949.0093;;;;
2020/03/17 05:58:38;;;;;;;13.5;6;;;;;;;4.83;70.38379;949.1001;;;;
2020/03/17 06:01:04;;;;;;;13.4;8.7;;;;;;;4.92;70.31055;949.0878;;;;
2020/03/17 06:03:29;;;;;;;19.1;8.8;;;;;;;5.01;69.65918;949.0717;;;;
2020/03/17 06:05:54;;;;;;;33;12.5;;;;;;;5.15;69.1084;949.1519;;;;
2020/03/17 06:08:20;;;;;;;21;12.8;;;;;;;5.2;68.69727;949.1841;;;;
2020/03/17 06:10:45;;;;;;;27.5;10.5;;;;;;;5.31;68.47949;949.2253;;;;
2020/03/17 06:13:10;;;;;;;7.7;3.8;;;;;;;5.38;67.73535;949.2372;;;;
2020/03/17 06:15:35;;;;;;;12.5;3.8;;;;;;;5.5;67.56055;949.2508;;;;
2020/03/17 06:18:00;;;;;;;11.9;4.2;;;;;;;5.72;67.00879;949.2825;;;;
2020/03/17 06:20:25;;;;;;;17;7.3;;;;;;;6.19;65.30664;949.3522;;;;
2020/03/17 06:22:51;;;;;;;25.1;6.9;;;;;;;6.3;65.4375;949.358;;;;
2020/03/17 06:25:16;;;;;;;12.2;4.9;;;;;;;6.59;64.21484;949.3655;;;;
2020/03/17 06:27:41;;;;;;;17.7;4.7;;;;;;;7.05;62.4375;949.3988;;;;
2020/03/17 06:30:06;;;;;;;21.7;5.3;;;;;;;7.21;61.87207;949.3588;;;;
2020/03/17 06:32:31;;;;;;;16.3;4.4;;;;;;;7.56;61.04883;949.4266;;;;
2020/03/17 06:34:57;;;;;;;21;4.7;;;;;;;7.72;60.59668;949.4832;;;;
2020/03/17 06:37:22;;;;;;;21;4.7;;;;;;;7.97;60.14258;949.4925;;;;
2020/03/17 06:39:48;;;;;;;23.7;5;;;;;;;8.43;59.71777;949.5453;;;;
2020/03/17 06:42:13;;;;;;;25.7;4.7;;;;;;;8.75;58.4209;949.526;;;;
2020/03/17 06:44:38;;;;;;;24.4;5.1;;;;;;;9.03;56.90039;949.508;;;;
2020/03/17 06:47:03;;;;;;;18;4.1;;;;;;;8.89;57.03027;949.5825;;;;
2020/03/17 06:49:28;;;;;;;23.2;4.2;;;;;;;8.57;57.24902;949.6353;;;;
2020/03/17 06:51:53;;;;;;;25.6;4.3;;;;;;;8.54;57.75586;949.6652;;;;
2020/03/17 06:54:18;;;;;;;13.3;3.4;;;;;;;8.57;57.0332;949.6664;;;;
2020/03/17 06:56:43;;;;;;;24.2;3.9;;;;;;;8.57;57.4082;949.7283;;;;
2020/03/17 06:59:08;;;;;;;17.4;4.2;;;;;;;8.54;57.76758;949.7667;;;;
2020/03/17 07:01:33;;;;;;;17.1;3.9;;;;;;;8.62;57.41504;949.7722;;;;
2020/03/17 07:03:58;;;;;;;17.6;3.9;;;;;;;8.9;56.10938;949.7816;;;;
2020/03/17 07:06:23;;;;;;;13.6;3.9;;;;;;;9.46;56.42188;949.7175;;;;
2020/03/17 07:08:49;;;;;;;24;4.8;;;;;;;10.21;51.60254;949.6794;;;;
2020/03/17 07:11:14;;;;;;;10.6;3.2;;;;;;;10.5;50.58789;949.7736;;;;
2020/03/17 07:13:39;;;;;;;21.6;3.7;;;;;;;10.61;50.49707;949.7087;;;;
2020/03/17 07:16:33;;;;;;;24.4;4.6;;;;;;;11.29;48.84961;949.7534;;;;
2020/03/17 07:18:29;;;;;;;7.1;2.3;;;;;;;11.42;46.49707;949.7131;;;;
2020/03/17 07:20:55;;;;;;;13;3.2;;;;;;;12.28;45.54492;949.7853;;;;
2020/03/17 07:23:22;;;;;;;7.4;2.5;;;;;;;12.42;43.28906;949.715;;;;
2020/03/17 07:25:47;;;;;;;5.3;2;;;;;;;12.53;42.48535;949.6853;;;;
2020/03/17 07:28:13;;;;;;;17.1;2.8;;;;;;;12.79;42.41895;949.7723;;;;
2020/03/17 07:30:38;;;;;;;12.2;2.7;;;;;;;13.1;41.38086;949.761;;;;
2020/03/17 07:33:03;;;;;;;11.4;2.6;;;;;;;13.4;40.36426;949.7935;;;;
2020/03/17 07:35:28;;;;;;;4.8;1.8;;;;;;;13.59;39.66797;949.724;;;;
2020/03/17 07:37:53;;;;;;;4.1;1.4;;;;;;;13.62;39.16504;949.7127;;;;
2020/03/17 07:40:18;;;;;;;8;2.2;;;;;;;14.76;38.35742;949.72;;;;
2020/03/17 07:42:43;;;;;;;4.3;1.9;;;;;;;15.12;36.76172;949.6564;;;;
2020/03/17 07:45:08;;;;;;;4.7;1.6;;;;;;;15.96;35.44531;949.6201;;;;
2020/03/17 07:47:33;;;;;;;7.4;1.7;;;;;;;15.61;36.19043;949.6827;;;;
2020/03/17 07:49:59;;;;;;;4.3;1.9;;;;;;;15.63;35.02539;949.6085;;;;
2020/03/17 07:52:24;;;;;;;9.5;1.9;;;;;;;16.37;34.41406;949.6336;;;;
2020/03/17 07:54:49;;;;;;;6.7;1.7;;;;;;;17.58;33.88281;949.6121;;;;
2020/03/17 07:57:14;;;;;;;1.9;1.1;;;;;;;18.62;31.68262;949.6511;;;;
2020/03/17 07:59:39;;;;;;;5.5;1.7;;;;;;;18.85;30.19824;949.6238;;;;
2020/03/17 08:02:04;;;;;;;2.8;1.3;;;;;;;19.85;29.89355;949.6622;;;;
2020/03/17 08:04:29;;;;;;;3.7;1.4;;;;;;;20.08;29.16211;949.6727;;;;
2020/03/17 08:06:54;;;;;;;5.9;1.6;;;;;;;19.74;28.08984;949.5948;;;;
2020/03/17 08:09:20;;;;;;;11.3;2.6;;;;;;;18.97;29.29785;949.5731;;;;
2020/03/17 08:11:45;;;;;;;6.9;1.8;;;;;;;18.73;29.50391;949.5828;;;;
2020/03/17 08:14:10;;;;;;;9.3;2.3;;;;;;;18.92;29.62109;949.6105;;;;
2020/03/17 08:16:35;;;;;;;5.6;1.8;;;;;;;18.06;30.13184;949.6679;;;;
2020/03/17 08:19:00;;;;;;;5.6;1.5;;;;;;;16.86;32.40137;949.7231;;;;
2020/03/17 08:21:25;;;;;;;6.2;1.6;;;;;;;17.62;32.41211;949.6912;;;;
2020/03/17 08:23:50;;;;;;;17.5;3.1;;;;;;;18.35;31.05957;949.6781;;;;
2020/03/17 08:26:16;;;;;;;9.1;2.1;;;;;;;18.23;30.77148;949.651;;;;
2020/03/17 08:28:40;;;;;;;9.4;1.9;;;;;;;19.47;30.36914;949.7028;;;;
2020/03/17 08:31:06;;;;;;;6.3;1.7;;;;;;;19.99;29.64648;949.6602;;;;
2020/03/17 08:33:31;;;;;;;7.1;1.7;;;;;;;19.96;29.07227;949.6984;;;;
2020/03/17 08:35:55;;;;;;;5.1;1.6;;;;;;;20.87;28.66504;949.7808;;;;
2020/03/17 08:38:20;;;;;;;4.7;1.7;;;;;;;21.69;26.51563;949.8183;;;;
2020/03/17 08:40:47;;;;;;;3.6;1.8;;;;;;;22.16;26.28613;949.8287;;;;
2020/03/17 08:43:12;;;;;;;5;1.6;;;;;;;22.48;25.47168;949.8067;;;;
2020/03/17 08:45:38;;;;;;;3.4;1.4;;;;;;;22.77;25.38379;949.7957;;;;
2020/03/17 08:48:03;;;;;;;4.1;1.4;;;;;;;22.39;26.82715;949.7569;;;;
2020/03/17 08:50:28;;;;;;;6.4;1.5;;;;;;;22.42;25.67969;949.7626;;;;
2020/03/17 08:52:54;;;;;;;8.9;1.6;;;;;;;22.16;26.60254;949.8619;;;;
2020/03/17 08:55:19;;;;;;;5;1.5;;;;;;;22.18;25.65332;949.8057;;;;
2020/03/17 08:57:44;;;;;;;3.1;1.5;;;;;;;22.51;25.9668;949.6722;;;;
2020/03/17 09:00:09;;;;;;;4;1.7;;;;;;;22.79;24.92578;949.6094;;;;
2020/03/17 09:02:37;;;;;;;3;1.4;;;;;;;22.84;25.33984;949.6447;;;;
2020/03/17 09:05:03;;;;;;;6.4;1.3;;;;;;;23.08;24.98926;949.6573;;;;
2020/03/17 09:07:28;;;;;;;8.4;1.8;;;;;;;23.92;23.94141;949.5651;;;;
2020/03/17 09:09:53;;;;;;;9.5;2;;;;;;;24.96;23.00684;949.6511;;;;
2020/03/17 09:12:18;;;;;;;4.1;1.7;;;;;;;25.68;23.29199;949.6144;;;;
2020/03/17 09:14:43;;;;;;;7.7;1.6;;;;;;;26.69;22.07715;949.6031;;;;
2020/03/17 09:17:08;;;;;;;4.8;1.7;;;;;;;27.28;20.99121;949.5607;;;;
2020/03/17 09:19:33;;;;;;;4.3;1.6;;;;;;;25.74;22.47949;949.5008;;;;
2020/03/17 09:21:58;;;;;;;6.7;1.9;;;;;;;25.7;21.66211;949.503;;;;
2020/03/17 09:24:23;;;;;;;6.3;1.6;;;;;;;25.54;22.2207;949.447;;;;
2020/03/17 09:26:48;;;;;;;2.7;1.3;;;;;;;25.72;22.00586;949.4517;;;;
2020/03/17 09:29:13;;;;;;;4.4;1.5;;;;;;;25.99;21.93555;949.4361;;;;
2020/03/17 09:31:39;;;;;;;5.1;1.6;;;;;;;24.72;22.93555;949.343;;;;
2020/03/17 09:34:04;;;;;;;3.4;1.5;;;;;;;24.69;22.72168;949.3683;;;;
2020/03/17 09:36:29;;;;;;;3.9;1.7;;;;;;;25.68;21.94434;949.3625;;;;
2020/03/17 09:38:54;;;;;;;4.9;2;;;;;;;26.98;21.75977;949.3267;;;;
2020/03/17 09:41:19;;;;;;;4.4;1.8;;;;;;;27.33;19.43945;949.2579;;;;
2020/03/17 09:43:44;;;;;;;4.2;2.1;;;;;;;27.38;20.03516;949.2413;;;;
2020/03/17 09:46:09;;;;;;;4.8;2.4;;;;;;;27.9;19.29785;949.2015;;;;
2020/03/17 09:48:34;;;;;;;4.1;2.1;;;;;;;27.85;19.7832;949.1984;;;;
2020/03/17 09:50:59;;;;;;;5.4;2.9;;;;;;;27.94;19.44238;949.1964;;;;
2020/03/17 09:53:25;;;;;;;5.1;3;;;;;;;27.69;19.94238;949.1783;;;;
2020/03/17 09:55:50;;;;;;;3.7;2.6;;;;;;;28.21;19.83496;949.1874;;;;
2020/03/17 09:58:15;;;;;;;3.7;3;;;;;;;28.49;19.28809;949.2369;;;;
2020/03/17 10:00:41;;;;;;;3.8;2.1;;;;;;;27.82;21.28906;949.1652;;;;
2020/03/17 10:03:06;;;;;;;5.1;3;;;;;;;27.09;21.44531;949.1808;;;;
2020/03/17 10:05:31;;;;;;;4.7;2.8;;;;;;;27.09;21.99023;949.2897;;;;
2020/03/17 10:07:57;;;;;;;4.8;2.6;;;;;;;26.11;23.31445;949.2737;;;;
2020/03/17 10:10:22;;;;;;;6.4;2.7;;;;;;;25.31;24.22852;949.2651;;;;
2020/03/17 10:12:47;;;;;;;5.8;3.3;;;;;;;23.88;25.8584;949.2153;;;;
2020/03/17 10:15:14;;;;;;;5;3.2;;;;;;;23.34;27.36719;949.3414;;;;
2020/03/17 10:17:39;;;;;;;5.4;3.1;;;;;;;23.91;26.28418;949.2365;;;;
2020/03/17 10:20:04;;;;;;;5;2.9;;;;;;;23.49;28.05859;949.2773;;;;
2020/03/17 10:22:29;;;;;;;6.1;3.1;;;;;;;24.08;26.27051;949.2488;;;;
2020/03/17 10:24:55;;;;;;;4.9;3.6;;;;;;;24.42;25.94824;949.204;;;;
2020/03/17 10:27:20;;;;;;;8.4;4.1;;;;;;;24.59;27.39648;949.247;;;;
2020/03/17 10:29:45;;;;;;;7.8;4.6;;;;;;;24.28;27.31836;949.2547;;;;
2020/03/17 10:32:10;;;;;;;7.6;5.3;;;;;;;23.98;28.68945;949.2144;;;;
2020/03/17 10:34:35;;;;;;;6;4.5;;;;;;;22.97;30.57422;949.2067;;;;
2020/03/17 10:37:01;;;;;;;5.6;4.3;;;;;;;23.1;29.50293;949.2172;;;;
2020/03/17 10:39:26;;;;;;;11.5;5;;;;;;;22.22;31.68457;949.1866;;;;
2020/03/17 10:41:52;;;;;;;7.6;5.1;;;;;;;21.51;32.8623;949.142;;;;
2020/03/17 10:44:17;;;;;;;7.1;4.9;;;;;;;21.38;34.05762;949.2274;;;;
2020/03/17 10:46:42;;;;;;;9.8;5.1;;;;;;;21.93;32.83594;949.1967;;;;
2020/03/17 10:49:07;;;;;;;8.6;5.4;;;;;;;21.68;33.4375;949.2637;;;;
2020/03/17 10:51:32;;;;;;;8.7;5.1;;;;;;;22.4;32.10742;949.2128;;;;
2020/03/17 10:53:57;;;;;;;7.7;4.9;;;;;;;22.21;31.6123;949.2314;;;;
2020/03/17 10:56:23;;;;;;;6.3;4.8;;;;;;;21.63;32.73047;949.3011;;;;
2020/03/17 10:58:49;;;;;;;7.1;4.7;;;;;;;22.19;31.85742;949.2673;;;;
2020/03/17 11:01:14;;;;;;;6.6;4.4;;;;;;;21.43;33.60547;949.2836;;;;
2020/03/17 11:03:39;;;;;;;7.4;4.9;;;;;;;21.75;32.24707;949.283;;;;
2020/03/17 11:06:04;;;;;;;7.3;4.6;;;;;;;21.73;32.51563;949.2452;;;;
2020/03/17 11:08:30;;;;;;;7.5;4.3;;;;;;;21.88;32.53809;949.3257;;;;
2020/03/17 11:10:55;;;;;;;9.2;4.6;;;;;;;21.79;31.55957;949.2628;;;;
2020/03/17 11:13:20;;;;;;;5.9;4.4;;;;;;;21.61;32.12012;949.2629;;;;
2020/03/17 11:15:45;;;;;;;7.8;4.7;;;;;;;21.28;33.23145;949.2896;;;;
2020/03/17 11:18:10;;;;;;;7.8;4.7;;;;;;;21.77;33.04492;949.2097;;;;
2020/03/17 11:20:35;;;;;;;6.6;4.6;;;;;;;22.4;30.86328;949.2095;;;;
2020/03/17 11:23:02;;;;;;;8.5;4.5;;;;;;;22.93;29.89063;949.1613;;;;
2020/03/17 11:25:27;;;;;;;8;4.6;;;;;;;23.28;30.86621;949.1273;;;;
2020/03/17 11:27:52;;;;;;;6.6;4.4;;;;;;;22.98;30.80957;949.2098;;;;
2020/03/17 11:30:18;;;;;;;7.4;4.1;;;;;;;23.79;30.17188;949.092;;;;
2020/03/17 11:32:43;;;;;;;7.3;4.9;;;;;;;24.04;28.78711;949.1767;;;;
2020/03/17 11:35:09;;;;;;;9.4;4.9;;;;;;;23.11;30.11328;949.135;;;;
2020/03/17 11:37:34;;;;;;;5.8;4.4;;;;;;;22.95;30.90137;949.0455;;;;
2020/03/17 11:39:59;;;;;;;7.6;4.5;;;;;;;23.29;31.20801;949.037;;;;
2020/03/17 11:42:24;;;;;;;6.3;4.3;;;;;;;23.54;30.42578;949.0111;;;;
2020/03/17 11:44:51;;;;;;;6.8;4.9;;;;;;;23.9;30.20313;949.1139;;;;
2020/03/17 11:47:15;;;;;;;6.3;4.6;;;;;;;24.31;28.53418;949.1091;;;;
2020/03/17 11:49:41;;;;;;;8.4;4.9;;;;;;;24.41;28.30469;949.0406;;;;
2020/03/17 11:52:06;;;;;;;8;4.8;;;;;;;25.67;26.88379;949.0294;;;;
2020/03/17 11:54:31;;;;;;;6.3;4.4;;;;;;;24.91;26.60254;949.0365;;;;
2020/03/17 11:56:56;;;;;;;10.4;4.8;;;;;;;23.32;29.81055;948.9949;;;;
2020/03/17 11:59:22;;;;;;;7.1;5;;;;;;;22.58;30.67676;948.9717;;;;
2020/03/17 12:01:47;;;;;;;6.6;5;;;;;;;21.96;31.73535;948.9814;;;;
2020/03/17 12:04:12;;;;;;;7.6;5;;;;;;;21.32;33.03516;948.9803;;;;
2020/03/17 12:06:38;;;;;;;11.5;5.3;;;;;;;20.47;34.53711;949.0499;;;;
2020/03/17 12:09:03;;;;;;;8.6;5.4;;;;;;;19.76;36.16016;948.9489;;;;
2020/03/17 12:11:28;;;;;;;9;5.5;;;;;;;19.84;37.37988;948.9719;;;;
2020/03/17 12:13:53;;;;;;;9.3;5.3;;;;;;;19.86;38.4668;948.9911;;;;
2020/03/17 12:16:18;;;;;;;8.3;5.6;;;;;;;19.93;37.99512;948.9645;;;;
2020/03/17 12:18:44;;;;;;;7.4;4.9;;;;;;;21.19;36.03125;948.9832;;;;
2020/03/17 12:21:09;;;;;;;8.4;4.9;;;;;;;22.06;34.80273;948.8438;;;;
2020/03/17 12:23:34;;;;;;;8.6;5.2;;;;;;;22.25;34.16016;948.7537;;;;
2020/03/17 12:25:59;;;;;;;8.4;4.7;;;;;;;22.45;34.26953;948.8477;;;;
2020/03/17 12:28:25;;;;;;;8.4;5.6;;;;;;;22;35.40625;948.8362;;;;
2020/03/17 12:30:50;;;;;;;7.7;5.5;;;;;;;22.04;34.43652;948.7401;;;;
2020/03/17 12:33:15;;;;;;;9.5;5.4;;;;;;;22.16;33.5791;948.7575;;;;
2020/03/17 12:35:40;;;;;;;8.1;5.4;;;;;;;23.33;31.98633;948.6824;;;;
2020/03/17 12:38:06;;;;;;;7.8;5.3;;;;;;;23.91;30.55664;948.6858;;;;
2020/03/17 12:40:31;;;;;;;7.8;5.6;;;;;;;24.2;30.37695;948.6735;;;;
2020/03/17 12:42:56;;;;;;;7.5;5.1;;;;;;;25;28.24805;948.6786;;;;
2020/03/17 12:45:21;;;;;;;8.9;5.1;;;;;;;24.78;29.46094;948.6951;;;;
2020/03/17 12:47:48;;;;;;;8.2;5.8;;;;;;;23.7;30.90723;948.62;;;;
2020/03/17 12:50:13;;;;;;;10;5.5;;;;;;;23.15;31.82031;948.6383;;;;
2020/03/17 12:52:38;;;;;;;11.1;5.7;;;;;;;21.95;33.71582;948.5085;;;;
2020/03/17 12:55:03;;;;;;;8.8;5.4;;;;;;;21.59;34.58887;948.5953;;;;
2020/03/17 12:57:29;;;;;;;8.8;5.5;;;;;;;21.78;34.1709;948.56;;;;
2020/03/17 12:59:54;;;;;;;10;5.6;;;;;;;21.51;34.11523;948.6153;;;;
2020/03/17 13:02:19;;;;;;;8.9;5.7;;;;;;;21.27;35.18359;948.5735;;;;
2020/03/17 13:04:44;;;;;;;11.5;5.7;;;;;;;21.15;35.51465;948.5933;;;;
2020/03/17 13:07:09;;;;;;;6.8;5.1;;;;;;;22.13;33.66992;948.5887;;;;
2020/03/17 13:09:34;;;;;;;9.1;5.9;;;;;;;21.96;34.2666;948.6213;;;;
2020/03/17 13:11:59;;;;;;;9.3;5.9;;;;;;;21.54;35.12402;948.5645;;;;
2020/03/17 13:14:24;;;;;;;8.7;5.7;;;;;;;20.22;37.16797;948.6273;;;;
2020/03/17 13:16:50;;;;;;;8.2;5.7;;;;;;;19.94;36.86426;948.6992;;;;
2020/03/17 13:19:15;;;;;;;8.2;5.6;;;;;;;19.57;38.99023;948.6431;;;;
2020/03/17 13:21:40;;;;;;;8.7;6.2;;;;;;;19.78;39.10156;948.652;;;;
2020/03/17 13:24:05;;;;;;;12.6;5.9;;;;;;;20.34;38.96387;948.6947;;;;
2020/03/17 13:26:30;;;;;;;10.1;5.9;;;;;;;19.87;38.53809;948.6005;;;;
2020/03/17 13:28:55;;;;;;;9.6;5.7;;;;;;;20.28;37.62891;948.6097;;;;
2020/03/17 13:31:21;;;;;;;9.5;6.3;;;;;;;20.15;36.99805;948.6028;;;;
2020/03/17 13:33:46;;;;;;;9.5;6;;;;;;;19.3;39.88574;948.5648;;;;
2020/03/17 13:36:11;;;;;;;8.1;6.4;;;;;;;18.48;41.98633;948.5997;;;;
2020/03/17 13:38:36;;;;;;;8.1;5.7;;;;;;;18.27;41.67578;948.6116;;;;
2020/03/17 13:41:02;;;;;;;10.3;6.2;;;;;;;17.82;42.41113;948.6469;;;;
2020/03/17 13:43:27;;;;;;;10.4;6.4;;;;;;;17.78;42.36035;948.6724;;;;
2020/03/17 13:45:52;;;;;;;10.9;6.5;;;;;;;17.64;43.20605;948.6876;;;;
2020/03/17 13:48:17;;;;;;;10.3;6.6;;;;;;;17.48;43.6543;948.6713;;;;
2020/03/17 13:50:42;;;;;;;9.5;6.6;;;;;;;17.49;43.875;948.6906;;;;
2020/03/17 13:53:07;;;;;;;9.9;6.8;;;;;;;17.62;44.22559;948.6788;;;;
2020/03/17 13:55:33;;;;;;;9.3;6.7;;;;;;;17.76;43.33398;948.6555;;;;
2020/03/17 13:57:58;;;;;;;9.5;6.5;;;;;;;17.87;43.34375;948.5839;;;;
2020/03/17 14:00:23;;;;;;;11.5;7.2;;;;;;;17.77;44.06641;948.6088;;;;
2020/03/17 14:02:48;;;;;;;10.3;6.5;;;;;;;17.52;45.27148;948.623;;;;
2020/03/17 14:05:13;;;;;;;10;7.1;;;;;;;17.54;44.59961;948.5923;;;;
2020/03/17 14:07:38;;;;;;;8.9;6.5;;;;;;;18.01;43.88086;948.5481;;;;
2020/03/17 14:10:04;;;;;;;8.3;6.6;;;;;;;18.28;42.65234;948.5067;;;;
2020/03/17 14:12:29;;;;;;;10.3;6.5;;;;;;;18.34;42.76367;948.4814;;;;
2020/03/17 14:14:54;;;;;;;11.9;6.8;;;;;;;18.54;42.42285;948.5251;;;;